Time;durP1;ratioP1;P1;durP2;ratioP2;P2;SDS_P1;SDS_P2;PMS_P1;PMS_P2;Temp;Humidity;BMP_temperature;BMP_pressure;BME280_temperature;BME280_humidity;BME280_pressure;Samples;Min_cycle;Max_cycle;Signal;HPM_P1;HPM_P2
2024/01/10 00:01:51;;;;;;;33.15;11.85;;;;;;;-2.76;53.47;100998.28;6088952;23;20014;-84
2024/01/10 00:04:18;;;;;;;33.40;10.93;;;;;;;-2.83;53.91;100998.34;6066293;23;20032;-85
2024/01/10 00:06:44;;;;;;;26.98;10.57;;;;;;;-2.79;53.91;100999.19;6066058;23;20086;-84
2024/01/10 00:09:11;;;;;;;27.00;11.30;;;;;;;-2.86;54.17;101002.75;6065455;23;20068;-84
2024/01/10 00:11:38;;;;;;;34.90;10.95;;;;;;;-2.85;54.43;100994.03;6089160;23;20018;-84
2024/01/10 00:14:06;;;;;;;29.83;10.88;;;;;;;-2.84;54.37;100991.44;6089914;23;20033;-84
2024/01/10 00:16:32;;;;;;;31.95;11.45;;;;;;;-2.84;54.53;100988.84;6114316;23;20017;-84
2024/01/10 00:18:59;;;;;;;27.02;10.30;;;;;;;-2.86;54.29;100998.41;6087585;23;20026;-84
2024/01/10 00:21:27;;;;;;;31.25;11.70;;;;;;;-2.85;54.60;100994.94;6065566;23;20494;-85
2024/01/10 00:23:53;;;;;;;28.75;11.52;;;;;;;-2.86;55.03;100987.16;6089645;23;20028;-84
2024/01/10 00:26:20;;;;;;;28.55;11.32;;;;;;;-2.87;54.72;100988.88;6090149;23;20028;-85
2024/01/10 00:28:47;;;;;;;35.50;11.65;;;;;;;-2.79;54.17;100993.97;6090920;23;20677;-84
2024/01/10 00:31:14;;;;;;;34.97;11.85;;;;;;;-2.87;54.58;100983.69;6067298;23;20030;-84
2024/01/10 00:33:40;;;;;;;34.42;10.98;;;;;;;-2.87;54.69;100986.28;6091589;23;20578;-84
2024/01/10 00:36:07;;;;;;;32.60;11.57;;;;;;;-2.90;54.68;100981.16;6067877;23;20045;-85
2024/01/10 00:38:34;;;;;;;33.40;11.15;;;;;;;-2.95;54.75;100975.16;6091435;23;20086;-85
2024/01/10 00:41:01;;;;;;;35.97;10.93;;;;;;;-2.88;54.57;100979.34;6090619;23;20505;-84
2024/01/10 00:43:27;;;;;;;30.52;10.80;;;;;;;-2.90;54.53;100978.56;6092004;23;20741;-85
2024/01/10 00:45:54;;;;;;;30.33;10.68;;;;;;;-2.94;54.69;100982.06;6090586;23;20045;-85
2024/01/10 00:48:21;;;;;;;29.30;11.65;;;;;;;-2.86;52.69;100981.94;6067020;23;20109;-84
2024/01/10 00:50:48;;;;;;;35.20;12.98;;;;;;;-2.80;52.13;100986.19;6115070;23;20026;-84
2024/01/10 00:53:14;;;;;;;33.53;12.15;;;;;;;-2.81;51.81;100982.75;6066590;23;20098;-85
2024/01/10 00:55:41;;;;;;;30.58;12.00;;;;;;;-2.79;52.04;100980.13;6067113;23;20025;-84
2024/01/10 00:58:08;;;;;;;33.20;12.70;;;;;;;-2.94;51.33;100984.66;6063579;23;20048;-84
2024/01/10 01:00:35;;;;;;;29.65;11.73;;;;;;;-2.94;51.62;100978.59;6090882;23;20332;-84
2024/01/10 01:03:02;;;;;;;27.70;11.48;;;;;;;-2.92;51.52;100976.84;6067667;23;20021;-84
2024/01/10 01:05:28;;;;;;;32.67;11.23;;;;;;;-2.91;51.75;100971.63;6062140;23;20081;-84
2024/01/10 01:07:55;;;;;;;33.38;13.10;;;;;;;-3.01;51.29;100983.03;6041939;23;20033;-84
2024/01/10 01:10:22;;;;;;;30.85;11.27;;;;;;;-2.92;51.67;100982.06;6091186;23;20350;-84
2024/01/10 01:12:49;;;;;;;38.67;13.13;;;;;;;-2.89;52.24;100988.03;6066239;23;20488;-84
2024/01/10 01:15:16;;;;;;;33.72;11.43;;;;;;;-2.85;51.83;100992.34;6067969;23;20456;-84
2024/01/10 01:17:42;;;;;;;34.15;11.63;;;;;;;-2.79;52.25;100987.94;6090661;23;20093;-84
2024/01/10 01:20:09;;;;;;;34.80;12.77;;;;;;;-2.80;52.14;100996.59;6062284;23;20045;-85
2024/01/10 01:22:36;;;;;;;33.10;11.23;;;;;;;-2.80;51.44;100991.38;6088731;23;20097;-84
2024/01/10 01:25:03;;;;;;;35.65;12.43;;;;;;;-2.76;51.64;100985.28;6089946;23;20026;-84
2024/01/10 01:27:30;;;;;;;33.28;12.18;;;;;;;-2.73;51.60;100990.41;6090541;23;20416;-84
2024/01/10 01:29:57;;;;;;;31.55;12.13;;;;;;;-2.77;51.14;100988.72;6066534;23;20025;-85
2024/01/10 01:32:24;;;;;;;34.90;12.57;;;;;;;-2.78;51.40;100980.09;6090724;23;20045;-85
2024/01/10 01:34:50;;;;;;;33.00;11.40;;;;;;;-2.75;51.30;100986.97;6066858;23;20025;-84
2024/01/10 01:37:17;;;;;;;33.03;11.50;;;;;;;-2.74;51.55;100991.31;6067380;23;20026;-85
2024/01/10 01:39:44;;;;;;;32.63;10.45;;;;;;;-2.73;51.43;100991.28;6113514;23;20468;-85
2024/01/10 01:42:11;;;;;;;26.30;10.32;;;;;;;-2.77;51.07;100987.03;6066973;23;20022;-85
2024/01/10 01:44:38;;;;;;;37.97;13.02;;;;;;;-2.75;51.41;100986.97;6090721;23;20018;-85
2024/01/10 01:47:06;;;;;;;30.60;11.10;;;;;;;-2.74;52.13;100989.56;6090308;23;20056;-85
2024/01/10 01:49:32;;;;;;;37.42;12.25;;;;;;;-2.79;52.40;100980.13;6066935;23;20029;-85
2024/01/10 01:52:00;;;;;;;33.97;12.43;;;;;;;-2.75;52.50;100981.78;6090392;23;20089;-85
2024/01/10 01:54:26;;;;;;;28.38;11.13;;;;;;;-2.76;52.89;100980.06;6065576;23;20462;-85
2024/01/10 01:56:53;;;;;;;38.17;12.63;;;;;;;-2.75;53.52;100986.97;6090752;23;20018;-85
2024/01/10 01:59:20;;;;;;;29.02;11.43;;;;;;;-2.77;53.67;100983.53;6090344;23;20028;-85
2024/01/10 02:01:47;;;;;;;28.23;10.77;;;;;;;-2.83;54.52;100984.50;6090388;23;20026;-85
2024/01/10 02:04:14;;;;;;;27.85;11.60;;;;;;;-2.79;52.90;100985.31;6067138;23;20014;-84
2024/01/10 02:06:41;;;;;;;28.25;11.68;;;;;;;-2.88;54.65;100997.56;6090500;23;20026;-84
2024/01/10 02:09:08;;;;;;;35.40;13.00;;;;;;;-2.92;55.23;100995.91;6088831;23;20029;-84
2024/01/10 02:11:35;;;;;;;32.40;11.05;;;;;;;-2.87;55.17;100985.44;6090559;23;20029;-84
2024/01/10 02:14:02;;;;;;;29.08;11.23;;;;;;;-2.85;53.63;100981.94;6041853;23;20088;-84
2024/01/10 02:16:29;;;;;;;28.88;11.43;;;;;;;-2.80;53.86;100981.84;6090392;23;20036;-84
2024/01/10 02:18:56;;;;;;;34.15;11.88;;;;;;;-2.87;54.51;100969.84;6114462;23;20045;-85
2024/01/10 02:21:22;;;;;;;31.52;10.75;;;;;;;-2.88;54.75;100974.16;6065608;23;20029;-84
2024/01/10 02:23:49;;;;;;;33.58;12.02;;;;;;;-2.85;54.62;100975.84;6090214;23;20088;-84
2024/01/10 02:26:16;;;;;;;32.88;12.35;;;;;;;-2.81;53.49;100969.75;6090518;23;20567;-84
2024/01/10 02:28:43;;;;;;;36.05;12.20;;;;;;;-2.75;53.39;100976.56;6090405;23;20021;-84
2024/01/10 02:31:10;;;;;;;33.22;11.45;;;;;;;-2.78;52.51;100982.69;6090009;23;20037;-84
2024/01/10 02:33:38;;;;;;;31.05;12.30;;;;;;;-2.72;52.53;100976.53;6067017;23;20026;-84
2024/01/10 02:36:04;;;;;;;31.50;12.52;;;;;;;-2.75;51.73;100977.44;6066277;23;20407;-84
2024/01/10 02:38:31;;;;;;;36.00;13.52;;;;;;;-2.78;51.56;100984.44;6089785;23;20097;-85
2024/01/10 02:40:58;;;;;;;33.55;12.48;;;;;;;-2.74;51.21;100979.16;6089179;23;20117;-84
2024/01/10 02:43:25;;;;;;;35.88;12.65;;;;;;;-2.71;51.12;100970.47;6066592;23;20026;-84
2024/01/10 02:45:51;;;;;;;32.78;12.57;;;;;;;-2.81;50.86;100961.94;6090169;23;20093;-85
2024/01/10 02:48:18;;;;;;;36.50;12.88;;;;;;;-2.77;51.36;100961.03;6114016;23;20097;-85
2024/01/10 02:50:45;;;;;;;38.03;13.60;;;;;;;-2.81;51.18;100956.75;6065969;23;20075;-85
2024/01/10 02:53:12;;;;;;;38.40;13.93;;;;;;;-2.77;51.17;100957.53;6066821;23;20017;-86
2024/01/10 02:55:39;;;;;;;33.15;13.27;;;;;;;-2.84;51.12;100955.06;6089548;23;20026;-85
2024/01/10 02:58:06;;;;;;;37.67;12.80;;;;;;;-2.86;51.35;100953.34;6089890;23;20029;-85
2024/01/10 03:00:32;;;;;;;35.97;12.48;;;;;;;-2.91;51.20;100942.19;6039557;23;20026;-85
2024/01/10 03:02:59;;;;;;;34.38;12.02;;;;;;;-2.88;51.81;100949.91;6061305;23;20026;-84
2024/01/10 03:05:26;;;;;;;32.20;11.98;;;;;;;-2.86;51.35;100949.00;6061010;23;20041;-84
2024/01/10 03:07:53;;;;;;;39.70;12.68;;;;;;;-2.86;51.73;100937.75;6087894;23;20094;-84
2024/01/10 03:10:20;;;;;;;33.42;12.38;;;;;;;-2.84;52.04;100939.47;6065763;23;20084;-85
2024/01/10 03:12:47;;;;;;;38.70;13.60;;;;;;;-2.85;51.56;100942.94;6062904;23;20025;-85
2024/01/10 03:15:13;;;;;;;33.15;13.05;;;;;;;-2.88;51.78;100939.53;6090404;23;20022;-85
2024/01/10 03:17:40;;;;;;;37.63;13.77;;;;;;;-2.92;51.54;100938.72;6090484;23;20423;-85
2024/01/10 03:20:08;;;;;;;37.80;12.48;;;;;;;-2.97;51.75;100937.09;6065321;23;20028;-85
2024/01/10 03:22:35;;;;;;;35.92;11.98;;;;;;;-2.87;51.58;100941.25;6065566;23;20052;-85
2024/01/10 03:25:02;;;;;;;40.40;12.38;;;;;;;-2.88;51.69;100934.31;6089496;23;20454;-85
2024/01/10 03:27:29;;;;;;;35.33;13.18;;;;;;;-2.96;51.50;100929.25;6089583;23;20446;-85
2024/01/10 03:29:56;;;;;;;34.20;12.27;;;;;;;-3.00;51.61;100932.78;6088299;23;20029;-84
2024/01/10 03:32:22;;;;;;;33.70;13.15;;;;;;;-2.91;51.89;100931.78;6089998;23;20030;-84
2024/01/10 03:34:51;;;;;;;39.58;11.82;;;;;;;-2.99;52.09;100934.50;6063250;23;20077;-84
2024/01/10 03:37:18;;;;;;;36.67;12.32;;;;;;;-3.03;51.63;100937.16;6116068;23;20104;-85
2024/01/10 03:39:45;;;;;;;31.30;12.23;;;;;;;-2.97;52.09;100931.88;6089452;23;20558;-85
2024/01/10 03:42:12;;;;;;;32.55;11.27;;;;;;;-3.09;51.90;100931.16;6090271;23;20464;-85
2024/01/10 03:44:38;;;;;;;38.53;14.40;;;;;;;-3.07;52.42;100934.59;6089628;23;20480;-85
2024/01/10 03:47:05;;;;;;;39.83;13.57;;;;;;;-3.07;52.34;100933.75;6089466;23;20105;-84
2024/01/10 03:49:32;;;;;;;30.42;11.68;;;;;;;-3.06;51.86;100943.25;6065089;23;20073;-85
2024/01/10 03:51:59;;;;;;;32.55;11.80;;;;;;;-3.04;52.08;100923.31;6065604;23;20049;-85
2024/01/10 03:54:25;;;;;;;38.50;11.93;;;;;;;-3.06;52.04;100935.47;6090251;23;20022;-85
2024/01/10 03:56:52;;;;;;;33.38;12.38;;;;;;;-3.06;51.88;100933.72;6065815;23;20030;-85
2024/01/10 03:59:19;;;;;;;39.38;12.65;;;;;;;-3.03;52.12;100919.81;6089053;23;20022;-85
2024/01/10 04:01:46;;;;;;;33.60;12.38;;;;;;;-3.03;51.99;100921.56;6068214;23;20021;-85
2024/01/10 04:04:12;;;;;;;40.63;12.70;;;;;;;-3.04;52.32;100925.06;6091397;23;20022;-84
2024/01/10 04:06:39;;;;;;;38.78;13.48;;;;;;;-3.02;52.17;100929.34;6116162;23;20029;-85
2024/01/10 04:09:08;;;;;;;39.58;12.95;;;;;;;-3.02;52.01;100926.75;6091470;23;20098;-85
2024/01/10 04:11:35;;;;;;;38.25;13.27;;;;;;;-2.98;52.15;100930.16;6090991;23;20026;-85
2024/01/10 04:14:02;;;;;;;39.65;12.73;;;;;;;-3.02;52.12;100928.50;6091057;23;20081;-85
2024/01/10 04:16:28;;;;;;;28.58;11.68;;;;;;;-2.97;51.48;100924.94;6091726;23;20022;-85
2024/01/10 04:18:55;;;;;;;29.42;11.35;;;;;;;-3.01;52.29;100922.41;6090242;23;20077;-85
2024/01/10 04:21:22;;;;;;;36.20;13.40;;;;;;;-3.02;52.22;100926.75;6090475;23;20751;-85
2024/01/10 04:23:49;;;;;;;33.45;11.48;;;;;;;-3.08;52.46;100924.22;6091929;23;20041;-84
2024/01/10 04:26:16;;;;;;;31.50;12.52;;;;;;;-3.05;52.59;100924.22;6067874;23;20029;-85
2024/01/10 04:28:43;;;;;;;35.05;11.82;;;;;;;-3.12;52.50;100914.78;6066950;23;20036;-85
2024/01/10 04:31:10;;;;;;;33.38;12.63;;;;;;;-3.01;52.70;100912.00;6091685;23;20053;-85
2024/01/10 04:33:36;;;;;;;37.28;13.30;;;;;;;-3.04;52.61;100922.47;6115542;23;20311;-85
2024/01/10 04:36:04;;;;;;;36.88;12.70;;;;;;;-3.14;52.55;100911.34;6066968;23;20036;-85
2024/01/10 04:38:31;;;;;;;38.20;12.90;;;;;;;-3.15;52.80;100909.63;6065212;23;20026;-85
2024/01/10 04:40:58;;;;;;;33.75;12.90;;;;;;;-3.07;52.86;100918.16;6090615;23;20069;-85
2024/01/10 04:43:25;;;;;;;35.53;12.57;;;;;;;-3.24;52.83;100915.81;6091959;23;20021;-85
2024/01/10 04:45:52;;;;;;;38.95;13.88;;;;;;;-3.19;52.70;100908.81;6019601;23;20030;-84
2024/01/10 04:48:19;;;;;;;38.83;12.77;;;;;;;-3.15;52.52;100914.84;6038198;23;20414;-84
2024/01/10 04:50:47;;;;;;;45.50;13.88;;;;;;;-3.11;52.34;100921.69;6038953;23;20038;-84
2024/01/10 04:53:14;;;;;;;36.90;12.93;;;;;;;-3.14;52.94;100916.53;6090668;23;20054;-84
2024/01/10 04:55:40;;;;;;;34.30;13.80;;;;;;;-3.06;52.83;100928.53;6086446;23;20025;-84
2024/01/10 04:58:08;;;;;;;31.55;12.57;;;;;;;-3.09;52.85;100923.38;6066632;23;20026;-84
2024/01/10 05:00:34;;;;;;;36.50;12.82;;;;;;;-3.01;53.60;100927.59;6089849;23;20022;-84
2024/01/10 05:03:01;;;;;;;33.78;11.60;;;;;;;-3.01;54.25;100920.66;6065740;23;20041;-83
2024/01/10 05:05:28;;;;;;;33.65;12.10;;;;;;;-2.98;54.24;100922.34;6090053;23;20018;-84
2024/01/10 05:07:55;;;;;;;37.05;11.93;;;;;;;-2.95;54.22;100927.50;6090612;23;20097;-87
2024/01/10 05:10:22;;;;;;;35.95;12.77;;;;;;;-2.96;54.45;100923.19;6090133;23;20030;-88
2024/01/10 05:12:49;;;;;;;34.15;12.80;;;;;;;-2.94;54.74;100922.28;6090792;23;20105;-87
2024/01/10 05:15:16;;;;;;;35.63;12.10;;;;;;;-2.97;54.73;100922.34;6089829;23;20022;-87
2024/01/10 05:17:43;;;;;;;35.55;11.95;;;;;;;-2.96;54.86;100918.84;6115208;23;20096;-87
2024/01/10 05:20:10;;;;;;;36.55;11.75;;;;;;;-2.92;54.71;100917.09;6067722;23;20028;-85
2024/01/10 05:22:37;;;;;;;32.08;11.75;;;;;;;-2.92;54.69;100923.13;6090629;23;20618;-85
2024/01/10 05:25:04;;;;;;;33.67;11.43;;;;;;;-2.93;54.89;100923.13;6090672;23;20097;-85
2024/01/10 05:27:31;;;;;;;41.72;13.25;;;;;;;-2.91;54.61;100917.03;6115448;23;20032;-86
2024/01/10 05:29:59;;;;;;;34.33;12.00;;;;;;;-2.87;54.33;100920.47;6089280;23;20721;-86
2024/01/10 05:32:26;;;;;;;38.38;12.70;;;;;;;-2.87;53.96;100921.31;6067248;23;20024;-86
2024/01/10 05:34:54;;;;;;;30.40;11.85;;;;;;;-2.86;54.51;100919.56;6090720;23;20016;-86
2024/01/10 05:37:21;;;;;;;34.58;10.98;;;;;;;-2.88;54.53;100919.59;6090860;23;20387;-87
2024/01/10 05:39:49;;;;;;;30.25;11.68;;;;;;;-2.91;54.13;100931.78;6090189;23;20037;-86
2024/01/10 05:42:16;;;;;;;32.80;12.23;;;;;;;-2.92;53.49;100928.31;6090610;23;20017;-87
2024/01/10 05:44:43;;;;;;;31.60;11.35;;;;;;;-2.90;53.37;100930.88;6065584;23;20021;-87
2024/01/10 05:47:10;;;;;;;36.80;12.45;;;;;;;-2.92;53.54;100925.72;6066712;23;20410;-86
2024/01/10 05:49:37;;;;;;;37.47;12.52;;;;;;;-2.90;53.11;100928.28;6089369;23;20021;-87
2024/01/10 05:52:04;;;;;;;37.35;12.75;;;;;;;-2.87;53.21;100926.50;6066839;23;20100;-87
2024/01/10 05:54:30;;;;;;;35.90;12.43;;;;;;;-2.91;52.63;100922.22;6115320;23;20029;-86
2024/01/10 05:56:57;;;;;;;30.25;11.07;;;;;;;-2.84;52.86;100929.06;6091138;23;20045;-87
2024/01/10 05:59:25;;;;;;;36.88;11.90;;;;;;;-2.87;52.62;100918.72;6065810;23;20026;-87
2024/01/10 06:01:55;;;;;;;33.70;13.02;;;;;;;-2.85;52.88;100926.47;6067690;23;20026;-87
2024/01/10 06:04:22;;;;;;;34.58;12.23;;;;;;;-2.80;53.09;100923.81;6066889;23;20526;-86
2024/01/10 06:06:49;;;;;;;34.92;11.77;;;;;;;-2.78;53.40;100924.66;6067497;23;20022;-87
2024/01/10 06:09:21;;;;;;;31.85;11.68;;;;;;;-2.77;53.42;100921.16;6064836;23;20775;-87
2024/01/10 06:11:48;;;;;;;37.78;12.73;;;;;;;-2.77;53.43;100922.03;6091653;23;20072;-86
2024/01/10 06:14:15;;;;;;;28.88;10.75;;;;;;;-2.77;53.57;100922.03;6090484;23;20026;-87
2024/01/10 06:16:43;;;;;;;31.00;12.18;;;;;;;-2.73;53.38;100923.69;6090501;23;20036;-87
2024/01/10 06:19:13;;;;;;;29.50;12.32;;;;;;;-2.80;52.86;100919.47;6089348;23;20026;-87
2024/01/10 06:21:40;;;;;;;33.25;11.80;;;;;;;-2.87;52.68;100933.47;6090929;23;20028;-86
2024/01/10 06:24:07;;;;;;;28.55;11.55;;;;;;;-2.84;52.64;100929.06;6090043;23;20022;-86
2024/01/10 06:26:35;;;;;;;33.28;12.70;;;;;;;-2.80;53.08;100919.47;6090254;23;20088;-87
2024/01/10 06:29:01;;;;;;;32.85;12.57;;;;;;;-2.79;52.92;100921.19;6089488;23;20033;-87
2024/01/10 06:31:28;;;;;;;38.45;12.85;;;;;;;-2.83;53.34;100916.91;6066612;23;20017;-86
2024/01/10 06:33:55;;;;;;;29.67;11.35;;;;;;;-2.82;53.16;100918.66;6062829;23;20037;-87
2024/01/10 06:36:22;;;;;;;34.72;12.77;;;;;;;-2.76;53.11;100931.53;6064552;23;20026;-87
2024/01/10 06:38:49;;;;;;;36.38;12.90;;;;;;;-2.80;52.83;100922.06;6089775;23;20097;-87
2024/01/10 06:41:16;;;;;;;30.60;11.05;;;;;;;-2.77;53.02;100918.56;6089922;23;20037;-84
2024/01/10 06:43:43;;;;;;;31.80;13.40;;;;;;;-2.78;53.15;100930.69;6065983;23;20025;-85
2024/01/10 06:46:11;;;;;;;38.10;13.20;;;;;;;-2.77;53.14;100926.34;6065392;23;20916;-84
2024/01/10 06:48:38;;;;;;;35.85;11.88;;;;;;;-2.86;53.12;100928.22;6090740;23;20022;-84
2024/01/10 06:51:15;;;;;;;30.83;11.27;;;;;;;-2.79;52.93;100930.75;6067870;23;20037;-84
2024/01/10 06:53:41;;;;;;;;;;;;;;;-2.87;53.06;100931.72;6090208;23;20096;-84
2024/01/10 06:56:09;;;;;;;31.90;11.90;;;;;;;-2.86;52.88;100927.38;6065161;23;19972;-84
2024/01/10 06:58:36;;;;;;;35.10;12.35;;;;;;;-2.78;53.33;100935.03;6089621;23;20699;-84
2024/01/10 07:01:06;;;;;;;37.42;11.75;;;;;;;-2.77;53.11;100939.34;6089268;23;20024;-84
2024/01/10 07:03:34;;;;;;;36.25;11.70;;;;;;;-2.89;53.24;100940.41;6089951;23;20065;-84
2024/01/10 07:06:01;;;;;;;34.15;11.65;;;;;;;-2.84;53.09;100936.00;6090737;23;20333;-84
2024/01/10 07:08:30;;;;;;;34.85;13.57;;;;;;;-2.81;53.19;100943.75;6089802;23;20026;-84
2024/01/10 07:10:57;;;;;;;38.53;12.98;;;;;;;-2.79;53.14;100942.00;6088790;23;20394;-84
2024/01/10 07:13:24;;;;;;;37.08;11.93;;;;;;;-2.76;53.19;100943.69;6062871;23;20028;-84
2024/01/10 07:15:52;;;;;;;34.95;11.48;;;;;;;-2.77;53.33;100952.34;6089843;23;20076;-84
2024/01/10 07:18:19;;;;;;;35.47;12.18;;;;;;;-2.77;53.22;100947.16;6065987;23;20485;-84
2024/01/10 07:20:46;;;;;;;36.67;12.02;;;;;;;-2.77;53.71;100953.22;6089518;23;20064;-84
2024/01/10 07:23:13;;;;;;;36.67;11.73;;;;;;;-2.79;53.46;100954.97;6114693;23;20030;-84
2024/01/10 07:25:39;;;;;;;41.60;12.93;;;;;;;-2.84;53.78;100960.25;6065387;23;20472;-84
2024/01/10 07:28:06;;;;;;;34.88;12.35;;;;;;;-2.78;53.78;100959.28;6061416;23;20035;-84
2024/01/10 07:30:33;;;;;;;43.92;12.63;;;;;;;-2.74;53.72;100960.13;6066340;23;20056;-84
2024/01/10 07:33:01;;;;;;;34.40;11.52;;;;;;;-2.76;54.69;100967.94;6065346;23;20354;-84
2024/01/10 07:35:29;;;;;;;33.90;12.70;;;;;;;-2.73;54.83;100974.81;6089792;23;20030;-84
2024/01/10 07:37:56;;;;;;;33.40;12.07;;;;;;;-2.73;54.61;100980.03;6041898;23;20046;-84
2024/01/10 07:40:22;;;;;;;31.05;11.70;;;;;;;-2.75;53.99;100973.97;6113334;23;20025;-84
2024/01/10 07:42:49;;;;;;;34.75;11.57;;;;;;;-2.74;53.60;100980.91;6042460;23;20014;-84
2024/01/10 07:45:16;;;;;;;30.35;12.02;;;;;;;-2.73;53.63;100980.03;6089095;23;20122;-84
2024/01/10 07:47:43;;;;;;;35.90;13.70;;;;;;;-2.72;53.56;100984.31;6066104;23;20666;-84
2024/01/10 07:50:14;;;;;;;40.50;12.23;;;;;;;-2.67;53.77;100982.50;6089733;23;20342;-84
2024/01/10 07:52:42;;;;;;;32.40;11.45;;;;;;;-2.66;54.12;100990.31;6114817;23;20033;-84
2024/01/10 07:55:09;;;;;;;42.35;13.88;;;;;;;-2.65;53.79;100993.75;6089875;23;20017;-84
2024/01/10 07:57:36;;;;;;;66.50;19.58;;;;;;;-2.65;53.55;100991.16;6089763;23;20096;-84
2024/01/10 08:00:10;;;;;;;58.17;19.70;;;;;;;-2.64;53.82;100993.75;6088632;23;20032;-84
2024/01/10 08:02:37;;;;;;;49.00;15.98;;;;;;;-2.68;53.89;100996.41;6090125;23;20026;-84
2024/01/10 08:05:13;;;;;;;42.42;17.58;;;;;;;-2.72;53.91;100997.31;6089608;23;20021;-84
2024/01/10 08:07:40;;;;;;;38.92;13.38;;;;;;;-2.70;53.68;101004.22;6067308;23;20490;-84
2024/01/10 08:10:09;;;;;;;46.92;20.35;;;;;;;-2.68;53.74;100997.25;6089166;23;20030;-84
2024/01/10 08:12:38;;;;;;;35.70;13.63;;;;;;;-2.76;54.26;101001.72;6065801;23;20032;-83
2024/01/10 08:15:08;;;;;;;34.63;12.85;;;;;;;-2.69;54.04;101002.50;6090334;23;20362;-84
2024/01/10 08:17:37;;;;;;;41.55;12.43;;;;;;;-2.73;54.29;100998.22;6090352;23;20414;-84
2024/01/10 08:20:06;;;;;;;31.38;12.88;;;;;;;-2.74;53.93;101010.38;6041655;23;20350;-84
2024/01/10 08:22:33;;;;;;;39.00;14.55;;;;;;;-2.70;54.04;100990.38;6089589;23;20081;-84
2024/01/10 08:25:00;;;;;;;30.45;11.65;;;;;;;-2.74;54.84;100989.56;6065327;23;20036;-84
2024/01/10 08:27:27;;;;;;;36.92;13.27;;;;;;;-2.76;54.41;100991.31;6039147;23;20018;-84
2024/01/10 08:29:54;;;;;;;36.53;12.93;;;;;;;-2.72;54.37;100986.94;6062113;23;20114;-84
2024/01/10 08:32:21;;;;;;;34.90;12.20;;;;;;;-2.70;54.67;100992.97;6089280;23;20037;-84
2024/01/10 08:34:49;;;;;;;39.28;13.02;;;;;;;-2.67;54.53;100998.13;6066147;23;20025;-84
2024/01/10 08:37:20;;;;;;;35.92;12.23;;;;;;;-2.71;54.56;100999.06;6064043;23;20033;-84
2024/01/10 08:39:47;;;;;;;37.75;12.70;;;;;;;-2.71;54.72;101001.66;6012747;23;20044;-84
2024/01/10 08:42:14;;;;;;;64.65;20.55;;;;;;;-2.73;54.70;101003.41;6088731;23;20470;-84
2024/01/10 08:44:41;;;;;;;50.55;16.50;;;;;;;-2.66;54.46;101003.31;6090541;23;20401;-84
2024/01/10 08:47:07;;;;;;;44.95;16.23;;;;;;;-2.67;54.64;100992.91;6065414;23;20494;-84
2024/01/10 08:49:34;;;;;;;41.90;13.25;;;;;;;-2.65;54.23;100999.81;6114867;23;20025;-84
2024/01/10 08:52:01;;;;;;;44.05;15.15;;;;;;;-2.63;54.20;101005.84;6091608;23;20017;-84
2024/01/10 08:54:28;;;;;;;48.47;17.27;;;;;;;-2.60;54.49;101002.34;6090894;23;20022;-84
2024/01/10 08:56:55;;;;;;;36.35;12.15;;;;;;;-2.61;54.52;101013.63;6067156;23;20033;-84
2024/01/10 08:59:22;;;;;;;33.15;11.77;;;;;;;-2.55;54.23;101005.72;6042816;23;20018;-84
2024/01/10 09:01:49;;;;;;;33.97;12.18;;;;;;;-2.50;54.33;101009.13;6114819;23;20117;-84
2024/01/10 09:04:15;;;;;;;37.42;13.13;;;;;;;-2.46;54.17;101004.75;6091128;23;20073;-84
2024/01/10 09:06:42;;;;;;;36.15;12.88;;;;;;;-2.43;54.43;101021.16;6090951;23;20026;-84
2024/01/10 09:09:09;;;;;;;40.30;12.88;;;;;;;-2.43;54.49;101015.94;6090174;23;20022;-84
2024/01/10 09:11:36;;;;;;;31.42;12.35;;;;;;;-2.40;54.65;101022.84;6067407;23;20401;-84
2024/01/10 09:14:08;;;;;;;33.50;13.20;;;;;;;-2.36;54.60;101026.25;6114971;23;20033;-84
2024/01/10 09:16:36;;;;;;;31.63;12.68;;;;;;;-2.36;54.25;101028.88;6067304;23;20049;-84
2024/01/10 09:19:02;;;;;;;38.85;13.85;;;;;;;-2.28;54.69;101029.59;6113940;23;20036;-84
2024/01/10 09:21:29;;;;;;;35.00;12.25;;;;;;;-2.28;54.38;101027.84;6067415;23;20061;-84
2024/01/10 09:23:56;;;;;;;36.58;13.52;;;;;;;-2.28;54.76;101016.59;6067216;23;20017;-84
2024/01/10 09:26:23;;;;;;;33.33;12.23;;;;;;;-2.32;54.50;101017.50;6061573;23;20023;-84
2024/01/10 09:28:51;;;;;;;45.88;14.45;;;;;;;-2.31;54.62;101019.25;6065090;23;20077;-84
2024/01/10 09:31:18;;;;;;;37.72;13.60;;;;;;;-2.29;54.64;101020.06;6089199;23;20022;-84
2024/01/10 09:33:45;;;;;;;36.88;13.63;;;;;;;-2.26;54.67;101027.84;6090467;23;20093;-84
2024/01/10 09:36:13;;;;;;;37.30;15.00;;;;;;;-2.25;54.43;101019.13;6114786;23;20026;-84
2024/01/10 09:38:40;;;;;;;36.92;12.75;;;;;;;-2.20;54.45;101025.13;6067000;23;20088;-84
2024/01/10 09:41:06;;;;;;;33.78;11.15;;;;;;;-2.17;54.68;101022.47;6089698;23;20117;-84
2024/01/10 09:43:33;;;;;;;35.00;13.48;;;;;;;-2.14;54.53;101022.41;6090107;23;20109;-84
2024/01/10 09:46:01;;;;;;;34.97;13.00;;;;;;;-2.12;54.71;101028.44;6090986;23;20046;-84
2024/01/10 09:48:29;;;;;;;36.50;13.23;;;;;;;-2.11;54.62;101024.97;6090398;23;20022;-84
2024/01/10 09:50:56;;;;;;;33.25;13.20;;;;;;;-2.06;54.81;101019.66;6090134;23;20097;-83
2024/01/10 09:53:24;;;;;;;40.50;13.90;;;;;;;-2.05;54.98;101027.47;6090776;23;20021;-84
2024/01/10 09:55:51;;;;;;;42.58;13.88;;;;;;;-2.05;54.44;101017.03;6090032;23;20331;-83
2024/01/10 09:58:18;;;;;;;38.72;13.95;;;;;;;-1.98;54.54;101029.06;6066006;23;20028;-83
2024/01/10 10:00:45;;;;;;;31.38;11.85;;;;;;;-1.97;54.89;101028.19;6038308;23;20486;-83
2024/01/10 10:03:14;;;;;;;31.67;12.50;;;;;;;-1.90;54.71;101026.34;6063183;23;20030;-83
2024/01/10 10:05:42;;;;;;;33.83;12.68;;;;;;;-1.82;54.93;101021.84;6090526;23;20026;-83
2024/01/10 10:08:11;;;;;;;33.70;14.23;;;;;;;-1.79;54.62;101021.78;6066055;23;20454;-83
2024/01/10 10:10:44;;;;;;;32.65;12.55;;;;;;;-1.73;55.03;101023.44;6065987;23;20363;-83
2024/01/10 10:13:24;;;;;;;37.33;14.10;;;;;;;-1.68;54.94;101021.59;6067643;23;20026;-83
2024/01/10 10:16:03;;;;;;;35.70;12.88;;;;;;;-1.68;54.79;101019.00;6085495;23;20391;-83
2024/01/10 10:18:34;;;;;;;34.97;12.90;;;;;;;-1.63;54.72;101013.66;6136685;23;20033;-83
2024/01/10 10:21:09;;;;;;;35.80;13.05;;;;;;;-1.67;54.78;101012.03;6062632;23;20453;-83
2024/01/10 10:23:38;;;;;;;30.33;12.60;;;;;;;-1.62;54.79;101011.06;6064478;23;20029;-83
2024/01/10 10:26:21;;;;;;;31.80;12.75;;;;;;;-1.58;54.95;101014.44;6089944;23;20029;-83
2024/01/10 10:28:49;;;;;;;36.67;13.95;;;;;;;-1.55;54.70;101012.66;6113420;23;20045;-83
2024/01/10 10:31:17;;;;;;;35.97;13.48;;;;;;;-1.56;54.95;101010.06;6089158;23;20026;-83
2024/01/10 10:33:44;;;;;;;36.92;14.18;;;;;;;-1.62;54.87;101011.06;6089581;23;20041;-83
2024/01/10 10:36:15;;;;;;;37.45;13.70;;;;;;;-1.61;54.87;101004.94;6089578;23;20081;-83
2024/01/10 10:38:42;;;;;;;32.75;13.85;;;;;;;-1.57;54.99;101005.75;6066324;23;20105;-83
2024/01/10 10:41:12;;;;;;;28.92;13.48;;;;;;;-1.57;55.20;101004.00;6113869;23;20018;-83
2024/01/10 10:43:39;;;;;;;34.28;14.07;;;;;;;-1.60;55.17;101004.06;6090660;23;20029;-83
2024/01/10 10:46:12;;;;;;;35.83;13.20;;;;;;;-1.59;54.94;101004.94;6113430;23;20048;-83
2024/01/10 10:48:39;;;;;;;37.35;14.00;;;;;;;-1.65;54.93;100995.50;6089771;23;20022;-83
2024/01/10 10:51:33;;;;;;;40.78;16.00;;;;;;;-1.68;55.07;100986.84;6089566;23;20028;-83
2024/01/10 10:54:00;;;;;;;44.88;14.52;;;;;;;-1.69;55.10;100988.63;6088987;23;20018;-83
2024/01/10 10:56:33;;;;;;;38.40;14.93;;;;;;;-1.68;55.54;100995.56;6089320;23;20658;-83
2024/01/10 10:59:00;;;;;;;47.53;15.63;;;;;;;-1.71;55.44;100984.31;6088806;23;20042;-83
2024/01/10 11:01:27;;;;;;;33.72;14.75;;;;;;;-1.72;55.35;100987.81;6113821;23;20496;-83
2024/01/10 11:03:54;;;;;;;32.72;13.73;;;;;;;-1.70;55.80;100993.88;6065105;23;20026;-83
2024/01/10 11:06:22;;;;;;;36.75;15.07;;;;;;;-1.69;55.93;100995.56;6089357;23;20022;-83
2024/01/10 11:09:05;;;;;;;40.63;13.90;;;;;;;-1.66;55.73;100996.34;6112933;23;20840;-83
2024/01/10 11:11:50;;;;;;;40.20;14.50;;;;;;;-1.70;55.87;100997.31;6088896;23;20115;-83